createdAt,value
2022-11-20T00:00:20.889Z,97640.25
2022-11-20T00:02:47.763Z,97622.41
2022-11-20T00:05:14.785Z,97628.31
2022-11-20T00:07:41.851Z,97633.69
2022-11-20T00:10:09.116Z,97630.16
2022-11-20T00:12:36.013Z,97623.31
2022-11-20T00:15:02.980Z,97623.59
2022-11-20T00:17:29.877Z,97627.50
2022-11-20T00:19:56.839Z,97615.53
2022-11-20T00:22:23.782Z,97632.00
2022-11-20T00:24:50.656Z,97629.41
2022-11-20T00:27:17.580Z,97622.47
2022-11-20T00:29:44.556Z,97623.94
2022-11-20T00:32:11.460Z,97626.47
2022-11-20T00:34:38.342Z,97628.38
2022-11-20T00:37:05.435Z,97621.56
2022-11-20T00:39:32.393Z,97629.94
2022-11-20T00:41:59.246Z,97638.72
2022-11-20T00:44:26.152Z,97636.31
2022-11-20T00:46:53.075Z,97633.28
2022-11-20T00:49:20.425Z,97633.88
2022-11-20T00:51:47.416Z,97638.56
2022-11-20T00:54:14.440Z,97637.34
2022-11-20T00:56:41.328Z,97634.44
2022-11-20T00:59:10.900Z,97642.13
2022-11-20T01:01:38.857Z,97650.59
2022-11-20T01:04:06.260Z,97653.16
2022-11-20T01:06:39.141Z,97654.78
2022-11-20T01:09:11.686Z,97653.63
2022-11-20T01:11:42.726Z,97644.78
2022-11-20T01:14:16.837Z,97657.19
2022-11-20T01:16:46.671Z,97642.72
2022-11-20T01:19:18.183Z,97644.22
2022-11-20T01:21:47.331Z,97636.38
2022-11-20T01:24:16.756Z,97640.94
2022-11-20T01:26:46.011Z,97645.88
2022-11-20T01:29:19.503Z,97634.34
2022-11-20T01:31:46.726Z,97640.81
2022-11-20T01:34:15.970Z,97638.06
2022-11-20T01:36:43.805Z,97630.84
2022-11-20T01:39:17.064Z,97627.72
2022-11-20T01:42:08.387Z,97627.44
2022-11-20T01:44:52.089Z,97631.66
2022-11-20T01:47:35.350Z,97623.91
2022-11-20T01:50:10.957Z,97619.88
2022-11-20T01:52:46.579Z,97624.38
2022-11-20T01:55:18.850Z,97614.94
2022-11-20T01:57:48.450Z,97619.69
2022-11-20T02:00:18.218Z,97615.41
2022-11-20T02:03:02.220Z,97612.34
2022-11-20T02:05:58.988Z,97608.69
2022-11-20T02:08:26.003Z,97614.94
2022-11-20T02:10:53.012Z,97614.00
2022-11-20T02:13:38.693Z,97618.19
2022-11-20T02:16:09.382Z,97623.50
2022-11-20T02:18:36.744Z,97618.25
2022-11-20T02:21:21.266Z,97624.47
2022-11-20T02:24:08.206Z,97622.25
2022-11-20T02:26:47.141Z,97623.03
2022-11-20T02:29:16.610Z,97617.19
2022-11-20T02:31:44.842Z,97615.19
2022-11-20T02:34:12.040Z,97605.25
2022-11-20T02:36:41.404Z,97608.22
2022-11-20T02:39:09.478Z,97611.44
2022-11-20T02:41:38.295Z,97599.75
2022-11-20T02:44:06.346Z,97598.13
2022-11-20T02:46:34.458Z,97596.75
2022-11-20T02:49:03.822Z,97587.84
2022-11-20T02:51:31.415Z,97586.72
2022-11-20T02:53:58.546Z,97590.63
2022-11-20T02:56:25.708Z,97585.94
2022-11-20T02:58:52.801Z,97586.50
2022-11-20T03:01:19.863Z,97586.34
2022-11-20T03:03:46.878Z,97582.03
2022-11-20T03:06:13.821Z,97568.63
2022-11-20T03:08:40.730Z,97576.16
2022-11-20T03:11:08.628Z,97571.13
2022-11-20T03:13:36.585Z,97571.16
2022-11-20T03:16:12.723Z,97569.97
2022-11-20T03:18:41.244Z,97571.41
2022-11-20T03:21:09.543Z,97585.13
2022-11-20T03:23:37.347Z,97584.06
2022-11-20T03:26:13.171Z,97586.94
2022-11-20T03:28:40.441Z,97586.53
2022-11-20T03:31:09.495Z,97587.38
2022-11-20T03:33:36.486Z,97587.56
2022-11-20T03:36:08.647Z,97586.75
2022-11-20T03:38:35.890Z,97567.63
2022-11-20T03:41:05.373Z,97560.59
2022-11-20T03:43:33.119Z,97560.22
2022-11-20T03:46:00.464Z,97569.56
2022-11-20T03:48:28.074Z,97566.69
2022-11-20T03:51:15.130Z,97564.66
2022-11-20T03:53:42.611Z,97568.72
2022-11-20T03:56:11.386Z,97564.00
2022-11-20T03:58:43.040Z,97552.19
2022-11-20T04:01:15.588Z,97544.06
2022-11-20T04:03:43.603Z,97531.63
2022-11-20T04:06:13.855Z,97535.31
2022-11-20T04:08:41.497Z,97532.47
2022-11-20T04:11:22.593Z,97528.63
2022-11-20T04:13:54.937Z,97521.81
2022-11-20T04:16:24.173Z,97516.47
2022-11-20T04:18:59.416Z,97518.34
2022-11-20T04:21:27.380Z,97515.69
2022-11-20T04:23:55.504Z,97504.06
2022-11-20T04:26:24.318Z,97514.22
2022-11-20T04:28:51.401Z,97511.94
2022-11-20T04:31:21.847Z,97496.78
2022-11-20T04:33:49.090Z,97502.88
2022-11-20T04:36:19.160Z,97505.16
2022-11-20T04:38:46.539Z,97499.22
2022-11-20T04:41:19.425Z,97494.16
2022-11-20T04:44:00.049Z,97503.38
2022-11-20T04:46:28.589Z,97501.69
2022-11-20T04:48:55.981Z,97505.41
2022-11-20T04:51:23.001Z,97509.84
2022-11-20T04:53:50.252Z,97514.34
2022-11-20T04:56:17.220Z,97530.81
2022-11-20T04:58:45.031Z,97533.44
2022-11-20T05:01:14.902Z,97524.22
2022-11-20T05:03:42.995Z,97516.47
2022-11-20T05:06:12.356Z,97502.78
2022-11-20T05:08:39.467Z,97501.94
2022-11-20T05:11:09.198Z,97498.16
2022-11-20T05:13:36.261Z,97493.88
2022-11-20T05:16:05.878Z,97492.66
2022-11-20T05:18:33.951Z,97497.72
2022-11-20T05:21:01.211Z,97505.63
2022-11-20T05:23:28.508Z,97505.81
2022-11-20T05:25:59.405Z,97511.78
2022-11-20T05:28:27.929Z,97509.78
2022-11-20T05:30:54.888Z,97516.47
2022-11-20T05:33:22.129Z,97514.38
2022-11-20T05:35:49.586Z,97512.97
2022-11-20T05:38:17.179Z,97525.00
2022-11-20T05:40:44.207Z,97532.13
2022-11-20T05:43:11.138Z,97531.81
2022-11-20T05:45:38.131Z,97529.56
2022-11-20T05:48:05.338Z,97523.06
2022-11-20T05:50:32.478Z,97535.28
2022-11-20T05:53:00.730Z,97529.16
2022-11-20T05:55:28.614Z,97532.56
2022-11-20T05:57:56.256Z,97534.53
2022-11-20T06:00:23.490Z,97538.88
2022-11-20T06:02:50.664Z,97536.63
2022-11-20T06:05:17.574Z,97536.97
2022-11-20T06:07:44.690Z,97548.09
2022-11-20T06:10:12.594Z,97553.31
2022-11-20T06:12:39.479Z,97559.78
2022-11-20T06:15:07.278Z,97545.59
2022-11-20T06:17:34.262Z,97551.47
2022-11-20T06:20:01.191Z,97556.00
2022-11-20T06:22:28.083Z,97550.94
2022-11-20T06:24:55.075Z,97549.13
2022-11-20T06:27:21.969Z,97557.31
2022-11-20T06:29:48.865Z,97559.00
2022-11-20T06:32:15.748Z,97570.00
2022-11-20T06:34:42.738Z,97568.06
2022-11-20T06:37:09.759Z,97571.75
2022-11-20T06:39:36.774Z,97566.53
2022-11-20T06:42:03.834Z,97567.31
2022-11-20T06:44:30.766Z,97565.34
2022-11-20T06:46:57.684Z,97566.16
2022-11-20T06:49:24.985Z,97569.25
2022-11-20T06:51:52.018Z,97573.97
2022-11-20T06:54:18.867Z,97579.75
2022-11-20T06:56:49.071Z,97574.47
2022-11-20T06:59:16.198Z,97567.44
2022-11-20T07:01:43.044Z,97569.94
2022-11-20T07:04:10.255Z,97577.34
2022-11-20T07:06:37.247Z,97582.81
2022-11-20T07:09:08.529Z,97582.91
2022-11-20T07:11:38.529Z,97580.25
2022-11-20T07:14:05.604Z,97595.00
2022-11-20T07:16:32.520Z,97600.13
2022-11-20T07:18:59.431Z,97605.66
2022-11-20T07:21:26.306Z,97601.34
2022-11-20T07:23:53.323Z,97595.97
2022-11-20T07:26:20.659Z,97588.56
2022-11-20T07:28:47.670Z,97591.31
2022-11-20T07:31:18.796Z,97592.06
2022-11-20T07:33:46.475Z,97598.47
2022-11-20T07:36:13.387Z,97596.41
2022-11-20T07:38:40.251Z,97598.47
2022-11-20T07:41:07.225Z,97604.84
2022-11-20T07:43:39.804Z,97597.06
2022-11-20T07:46:08.210Z,97590.53
2022-11-20T07:48:35.226Z,97586.47
2022-11-20T07:51:02.276Z,97590.53
2022-11-20T07:53:29.120Z,97595.84
2022-11-20T07:55:56.044Z,97585.66
2022-11-20T07:58:23.016Z,97586.88
2022-11-20T08:00:50.179Z,97585.50
2022-11-20T08:03:21.686Z,97582.84
2022-11-20T08:05:51.455Z,97593.22
2022-11-20T08:08:18.326Z,97593.66
2022-11-20T08:10:45.231Z,97595.09
2022-11-20T08:13:30.643Z,97580.78
2022-11-20T08:15:57.554Z,97592.03
2022-11-20T08:18:32.691Z,97591.84
2022-11-20T08:21:04.887Z,97595.09
2022-11-20T08:23:32.142Z,97599.00
2022-11-20T08:25:59.192Z,97601.66
2022-11-20T08:28:26.098Z,97591.41
2022-11-20T08:30:59.377Z,97597.97
2022-11-20T08:33:26.547Z,97604.94
2022-11-20T08:35:53.453Z,97601.66
2022-11-20T08:38:20.361Z,97598.78
2022-11-20T08:41:07.168Z,97604.91
2022-11-20T08:43:34.696Z,97601.44
2022-11-20T08:46:01.702Z,97595.09
2022-11-20T08:48:28.608Z,97591.00
2022-11-20T08:50:59.480Z,97584.84
2022-11-20T08:53:27.610Z,97581.81
2022-11-20T08:55:54.899Z,97584.00
2022-11-20T08:58:21.798Z,97574.63
2022-11-20T09:00:48.757Z,97571.38
2022-11-20T09:03:15.637Z,97575.88
2022-11-20T09:05:43.824Z,97569.72
2022-11-20T09:08:10.734Z,97580.38
2022-11-20T09:10:40.727Z,97577.94
2022-11-20T09:13:07.894Z,97568.69
2022-11-20T09:15:35.391Z,97574.44
2022-11-20T09:18:04.756Z,97567.06
2022-11-20T09:20:32.187Z,97574.44
2022-11-20T09:22:59.211Z,97560.94
2022-11-20T09:25:26.393Z,97562.16
2022-11-20T09:28:00.450Z,97560.72
2022-11-20T09:30:28.220Z,97566.88
2022-11-20T09:32:55.818Z,97563.41
2022-11-20T09:35:22.712Z,97559.53
2022-11-20T09:37:51.174Z,97566.06
2022-11-20T09:40:22.467Z,97556.44
2022-11-20T09:43:17.962Z,97542.72
2022-11-20T10:17:39.682Z,97505.03
2022-11-20T10:20:26.503Z,97511.41
2022-11-20T10:23:09.716Z,97498.34
2022-11-20T10:26:02.842Z,97493.22
2022-11-20T10:28:55.402Z,97497.91
2022-11-20T10:31:47.233Z,97492.72
2022-11-20T10:34:27.003Z,97500.47
2022-11-20T10:37:04.880Z,97491.56
2022-11-20T10:40:13.202Z,97495.75
2022-11-20T10:42:46.714Z,97479.69
2022-11-20T10:45:25.466Z,97494.13
2022-11-20T10:47:56.473Z,97484.50
2022-11-20T10:50:24.426Z,97480.59
2022-11-20T10:53:02.381Z,97472.63
2022-11-20T10:55:41.725Z,97484.69
2022-11-20T10:58:15.888Z,97481.19
2022-11-20T11:00:43.394Z,97481.94
2022-11-20T11:03:36.684Z,97469.69
2022-11-20T11:06:11.538Z,97471.97
2022-11-20T11:08:42.173Z,97468.97
2022-11-20T11:11:28.852Z,97462.72
2022-11-20T11:14:13.537Z,97456.44
2022-11-20T11:16:56.741Z,97468.78
2022-11-20T11:19:23.886Z,97468.75
2022-11-20T11:21:55.766Z,97477.53
2022-11-20T11:24:45.979Z,97477.38
2022-11-20T11:27:18.921Z,97488.59
2022-11-20T11:29:48.765Z,97484.50
2022-11-20T11:32:19.912Z,97490.00
2022-11-20T11:34:59.470Z,97495.38
2022-11-20T11:37:33.933Z,97495.19
2022-11-20T11:40:23.762Z,97489.44
2022-11-20T11:43:02.188Z,97491.06
2022-11-20T11:45:29.414Z,97504.38
2022-11-20T11:47:59.866Z,97508.81
2022-11-20T11:50:28.966Z,97503.66
2022-11-20T11:53:15.400Z,97510.44
2022-11-20T11:56:09.866Z,97515.31
2022-11-20T11:58:50.704Z,97517.31
2022-11-20T12:01:35.276Z,97522.28
2022-11-20T12:04:23.578Z,97523.94
2022-11-20T12:06:58.960Z,97518.63
2022-11-20T12:09:38.682Z,97522.09
2022-11-20T12:12:21.135Z,97520.06
2022-11-20T12:14:52.013Z,97513.09
2022-11-20T12:17:19.040Z,97510.91
2022-11-20T12:19:45.998Z,97515.38
2022-11-20T12:22:46.936Z,97506.38
2022-11-20T12:25:16.786Z,97496.56
2022-11-20T12:28:20.589Z,97495.16
2022-11-20T12:31:15.200Z,97492.69
2022-11-20T12:33:56.839Z,97493.94
2022-11-20T12:36:29.612Z,97491.88
2022-11-20T12:38:59.685Z,97492.69
2022-11-20T12:42:00.754Z,97486.59
2022-11-20T12:45:13.223Z,97479.38
2022-11-20T12:47:48.816Z,97484.72
2022-11-20T12:51:13.550Z,97488.41
2022-11-20T12:54:18.130Z,97491.44
2022-11-20T12:57:03.446Z,97486.59
2022-11-20T12:59:48.666Z,97490.44
2022-11-20T13:02:39.426Z,97492.09
2022-11-20T13:05:33.792Z,97480.09
2022-11-20T13:08:03.160Z,97481.75
2022-11-20T13:10:50.257Z,97486.06
2022-11-20T13:13:31.092Z,97482.16
2022-11-20T13:16:26.278Z,97476.03
2022-11-20T13:18:53.429Z,97477.25
2022-11-20T13:21:36.731Z,97477.25
2022-11-20T13:24:07.469Z,97471.13
2022-11-20T13:26:35.229Z,97472.16
2022-11-20T13:29:17.588Z,97466.44
2022-11-20T13:31:47.043Z,97469.28
2022-11-20T13:34:27.167Z,97458.88
2022-11-20T13:36:56.906Z,97465.84
2022-11-20T13:39:34.740Z,97477.69
2022-11-20T13:42:04.371Z,97474.22
2022-11-20T13:44:36.798Z,97480.53
2022-11-20T13:47:03.764Z,97474.22
2022-11-20T13:49:45.833Z,97480.53
2022-11-20T13:52:50.283Z,97484.66
2022-11-20T13:55:20.541Z,97485.25
2022-11-20T13:57:50.487Z,97477.91
2022-11-20T14:00:20.722Z,97476.06
2022-11-20T14:03:06.270Z,97483.44
2022-11-20T14:05:38.482Z,97476.28
2022-11-20T14:08:11.838Z,97486.88
2022-11-20T14:10:40.594Z,97484.66
2022-11-20T14:13:22.087Z,97488.91
2022-11-20T14:15:48.983Z,97482.19
2022-11-20T14:18:21.431Z,97478.09
2022-11-20T14:20:49.114Z,97479.72
2022-11-20T14:23:30.316Z,97466.03
2022-11-20T14:25:58.061Z,97466.22
2022-11-20T14:28:31.174Z,97469.50
2022-11-20T14:30:58.879Z,97469.28
2022-11-20T14:33:28.125Z,97476.22
2022-11-20T14:35:57.490Z,97474.00
2022-11-20T14:38:29.689Z,97468.50
2022-11-20T14:41:07.759Z,97462.97
2022-11-20T14:43:37.012Z,97466.25
2022-11-20T14:46:10.158Z,97471.94
2022-11-20T14:48:43.008Z,97464.78
2022-11-20T14:51:34.052Z,97457.84
2022-11-20T14:54:12.062Z,97453.56
2022-11-20T14:56:39.119Z,97454.78
2022-11-20T14:59:06.763Z,97455.19
2022-11-20T15:01:34.848Z,97455.59
2022-11-20T15:04:12.241Z,97445.97
2022-11-20T15:06:50.468Z,97437.81
2022-11-20T15:09:17.477Z,97439.25
2022-11-20T15:11:58.002Z,97431.66
2022-11-20T15:14:26.715Z,97436.78
2022-11-20T15:16:54.293Z,97426.78
2022-11-20T15:19:25.854Z,97418.59
2022-11-20T15:21:53.182Z,97426.97
2022-11-20T15:24:20.812Z,97430.47
2022-11-20T15:26:48.840Z,97424.13
2022-11-20T15:29:20.345Z,97424.53
2022-11-20T15:31:47.353Z,97416.97
2022-11-20T15:34:16.100Z,97423.72
2022-11-20T15:36:44.576Z,97413.28
2022-11-20T15:39:12.703Z,97410.22
2022-11-20T15:41:40.020Z,97407.75
2022-11-20T15:44:07.255Z,97404.88
2022-11-20T15:46:39.578Z,97405.72
2022-11-20T15:49:10.239Z,97406.53
2022-11-20T15:51:39.436Z,97403.06
2022-11-20T15:54:23.675Z,97403.66
2022-11-20T15:56:53.431Z,97400.78
2022-11-20T15:59:21.096Z,97397.53
2022-11-20T16:01:48.011Z,97407.56
2022-11-20T16:04:17.660Z,97403.88
2022-11-20T16:06:44.641Z,97405.31
2022-11-20T16:09:11.814Z,97404.09
2022-11-20T16:11:39.037Z,97404.88
2022-11-20T16:14:26.026Z,97408.56
2022-11-20T16:16:53.320Z,97404.72
2022-11-20T16:19:20.302Z,97406.13
2022-11-20T16:21:47.756Z,97394.25
2022-11-20T16:24:15.441Z,97404.09
2022-11-20T16:26:42.938Z,97413.06
2022-11-20T16:29:11.231Z,97425.75
2022-11-20T16:31:38.538Z,97428.19
2022-11-20T16:34:12.447Z,97439.03
2022-11-20T16:36:45.852Z,97438.41
2022-11-20T16:39:13.460Z,97442.50
2022-11-20T16:41:40.366Z,97441.91
2022-11-20T16:44:10.229Z,97451.72
2022-11-20T16:46:37.380Z,97450.69
2022-11-20T16:49:13.363Z,97444.16
2022-11-20T16:51:40.344Z,97447.00
2022-11-20T16:54:09.435Z,97444.16
2022-11-20T16:56:36.909Z,97445.16
2022-11-20T16:59:04.653Z,97460.13
2022-11-20T17:01:32.044Z,97462.25
2022-11-20T17:04:01.961Z,97466.06
2022-11-20T17:06:31.870Z,97477.53
2022-11-20T17:09:00.034Z,97474.41
2022-11-20T17:11:27.659Z,97475.66
2022-11-20T17:14:03.742Z,97473.75
2022-11-20T17:16:31.435Z,97487.78
2022-11-20T17:19:02.827Z,97483.13
2022-11-20T17:21:36.306Z,97484.16
2022-11-20T17:24:06.587Z,97494.28
2022-11-20T17:26:34.709Z,97488.06
2022-11-20T17:29:07.474Z,97498.13
2022-11-20T17:31:35.223Z,97495.16
2022-11-20T17:34:02.712Z,97499.50
2022-11-20T17:36:30.979Z,97500.53
2022-11-20T17:38:58.549Z,97506.97
2022-11-20T17:41:28.351Z,97519.41
2022-11-20T17:43:57.676Z,97528.69
2022-11-20T17:46:29.995Z,97514.41
2022-11-20T17:48:57.130Z,97498.94
2022-11-20T17:51:27.011Z,97500.41
2022-11-20T17:53:56.842Z,97512.09
2022-11-20T17:56:42.509Z,97504.84
2022-11-20T17:59:12.370Z,97485.94
2022-11-20T18:01:40.670Z,97485.78
2022-11-20T18:04:07.595Z,97508.66
2022-11-20T18:06:34.504Z,97495.63
2022-11-20T18:09:04.284Z,97547.09
2022-11-20T18:11:39.578Z,97550.19
2022-11-20T18:14:32.843Z,97511.75
2022-11-20T18:17:09.718Z,97560.19
2022-11-20T18:19:48.072Z,97575.97
2022-11-20T18:22:27.830Z,97543.72
2022-11-20T18:24:54.834Z,97525.91
2022-11-20T18:27:23.317Z,97516.53
2022-11-20T18:29:52.194Z,97519.81
2022-11-20T18:32:21.634Z,97513.72
2022-11-20T18:34:49.275Z,97516.34
2022-11-20T18:37:17.127Z,97516.66
2022-11-20T18:39:44.442Z,97524.53
2022-11-20T18:42:32.457Z,97524.03
2022-11-20T18:45:00.453Z,97531.41
2022-11-20T18:47:32.130Z,97527.78
2022-11-20T18:50:01.277Z,97522.53
2022-11-20T18:52:34.196Z,97552.78
2022-11-20T18:55:02.702Z,97558.69
2022-11-20T18:57:30.109Z,97549.53
2022-11-20T19:00:06.374Z,97540.50
2022-11-20T19:02:41.093Z,97533.28
2022-11-20T19:05:09.996Z,97531.50
2022-11-20T19:07:36.965Z,97542.00
2022-11-20T19:10:05.298Z,97561.88
2022-11-20T19:12:32.225Z,97566.81
2022-11-20T19:14:59.121Z,97546.63
2022-11-20T19:17:26.072Z,97524.44
2022-11-20T19:19:55.056Z,97516.38
2022-11-20T19:22:22.488Z,97525.78
2022-11-20T19:24:49.848Z,97518.06
2022-11-20T19:27:17.046Z,97521.34
2022-11-20T19:29:44.137Z,97518.41
2022-11-20T19:32:11.479Z,97500.81
2022-11-20T19:34:38.456Z,97491.63
2022-11-20T19:37:05.560Z,97495.41
2022-11-20T19:39:32.541Z,97496.75
2022-11-20T19:41:59.534Z,97500.03
2022-11-20T19:44:26.393Z,97510.22
2022-11-20T19:46:53.787Z,97509.06
2022-11-20T19:49:20.917Z,97503.00
2022-11-20T19:51:49.543Z,97494.16
2022-11-20T19:54:17.560Z,97488.88
2022-11-20T19:56:45.612Z,97494.97
2022-11-20T19:59:13.175Z,97487.22
2022-11-20T20:01:40.280Z,97492.97
2022-11-20T20:04:07.329Z,97491.19
2022-11-20T20:06:36.382Z,97498.25
2022-11-20T20:09:09.133Z,97504.06
2022-11-20T20:11:37.192Z,97504.88
2022-11-20T20:14:10.280Z,97519.66
2022-11-20T20:16:37.486Z,97519.34
2022-11-20T20:19:05.621Z,97508.91
2022-11-20T20:21:36.428Z,97497.69
2022-11-20T20:24:04.285Z,97499.44
2022-11-20T20:26:32.684Z,97504.97
2022-11-20T20:29:01.519Z,97516.53
2022-11-20T20:31:31.102Z,97496.84
2022-11-20T20:33:58.358Z,97500.31
2022-11-20T20:36:25.596Z,97494.47
2022-11-20T20:38:57.161Z,97494.81
2022-11-20T20:41:25.137Z,97496.41
2022-11-20T20:44:10.916Z,97502.91
2022-11-20T20:46:38.109Z,97508.31
2022-11-20T20:49:05.235Z,97491.84
2022-11-20T20:51:32.144Z,97497.75
2022-11-20T20:53:59.714Z,97479.81
2022-11-20T20:56:26.960Z,97482.13
2022-11-20T20:58:54.004Z,97473.75
2022-11-20T21:01:21.524Z,97471.78
2022-11-20T21:03:48.724Z,97467.38
2022-11-20T21:06:15.653Z,97467.19
2022-11-20T21:08:44.465Z,97467.03
2022-11-20T21:11:17.878Z,97458.16
2022-11-20T21:13:46.612Z,97465.22
2022-11-20T21:16:15.630Z,97463.25
2022-11-20T21:18:43.042Z,97465.88
2022-11-20T21:21:32.012Z,97473.94
2022-11-20T21:23:59.314Z,97464.75
2022-11-20T21:26:26.387Z,97460.44
2022-11-20T21:28:53.582Z,97468.34
2022-11-20T21:31:23.608Z,97470.44
2022-11-20T21:33:53.912Z,97484.09
2022-11-20T21:36:31.442Z,97476.69
2022-11-20T21:38:59.691Z,97475.00
2022-11-20T21:41:28.493Z,97478.41
2022-11-20T21:44:29.560Z,97464.50
2022-11-20T21:46:45.081Z,97451.13
2022-11-20T21:49:12.487Z,97440.47
2022-11-20T21:51:39.429Z,97428.03
2022-11-20T21:54:06.317Z,97431.22
2022-11-20T21:56:33.349Z,97444.47
2022-11-20T21:59:00.725Z,97440.53
2022-11-20T22:01:30.442Z,97439.38
2022-11-20T22:04:00.246Z,97430.41
2022-11-20T22:06:32.696Z,97422.88
2022-11-20T22:09:00.534Z,97443.16
2022-11-20T22:11:27.888Z,97427.03
2022-11-20T22:14:13.410Z,97423.84
2022-11-20T22:16:40.463Z,97431.31
2022-11-20T22:19:07.828Z,97421.56
2022-11-20T22:21:35.307Z,97418.75
2022-11-20T22:24:02.286Z,97410.13
2022-11-20T22:26:33.969Z,97417.81
2022-11-20T22:29:04.933Z,97417.25
2022-11-20T22:31:32.433Z,97409.72
2022-11-20T22:34:02.204Z,97408.72
2022-11-20T22:36:31.030Z,97409.00
2022-11-20T22:38:58.801Z,97418.88
2022-11-20T22:41:29.165Z,97423.16
2022-11-20T22:43:58.451Z,97426.50
2022-11-20T22:46:27.315Z,97414.47
2022-11-20T22:48:56.404Z,97420.19
2022-11-20T22:51:28.482Z,97425.34
2022-11-20T22:53:55.544Z,97418.75
2022-11-20T22:56:22.996Z,97416.75
2022-11-20T22:58:51.990Z,97404.31
2022-11-20T23:01:34.785Z,97411.72
2022-11-20T23:04:04.172Z,97417.03
2022-11-20T23:06:34.516Z,97392.25
2022-11-20T23:09:05.652Z,97395.50
2022-11-20T23:11:33.492Z,97388.03
2022-11-20T23:14:03.375Z,97379.81
2022-11-20T23:16:31.536Z,97375.69
2022-11-20T23:19:01.406Z,97356.25
2022-11-20T23:21:28.832Z,97344.97
2022-11-20T23:23:57.579Z,97331.00
2022-11-20T23:26:30.279Z,97326.91
2022-11-20T23:28:58.842Z,97338.16
2022-11-20T23:31:28.426Z,97344.34
2022-11-20T23:33:55.337Z,97329.09
2022-11-20T23:36:22.762Z,97327.41
2022-11-20T23:38:49.863Z,97328.91
2022-11-20T23:41:16.854Z,97313.91
2022-11-20T23:43:43.873Z,97300.66
2022-11-20T23:46:15.196Z,97309.63
2022-11-20T23:48:45.416Z,97302.53
2022-11-20T23:51:13.169Z,97305.19
2022-11-20T23:53:40.266Z,97302.47
2022-11-20T23:56:07.899Z,97299.84
2022-11-20T23:58:38.858Z,97294.03
